createdAt,value
2023-01-11T00:00:59.228Z,10.00
2023-01-11T00:04:41.602Z,9.90
2023-01-11T00:08:26.699Z,9.90
2023-01-11T00:12:08.502Z,9.80
2023-01-11T00:15:50.392Z,9.80
2023-01-11T00:19:32.278Z,9.80
2023-01-11T00:23:14.267Z,9.80
2023-01-11T00:26:56.143Z,9.80
2023-01-11T00:30:38.969Z,9.80
2023-01-11T00:34:21.003Z,9.80
2023-01-11T00:38:02.850Z,9.80
2023-01-11T00:42:17.173Z,9.80
2023-01-11T00:46:17.756Z,9.80
2023-01-11T00:49:59.587Z,9.80
2023-01-11T00:53:41.500Z,9.80
2023-01-11T00:57:23.327Z,9.80
2023-01-11T01:01:08.252Z,9.70
2023-01-11T01:04:50.097Z,9.70
2023-01-11T01:08:32.128Z,9.70
2023-01-11T01:12:33.903Z,9.60
2023-01-11T01:16:15.798Z,9.60
2023-01-11T01:19:57.681Z,9.60
2023-01-11T01:23:39.528Z,9.60
2023-01-11T01:27:21.404Z,9.50
2023-01-11T01:31:03.373Z,9.50
2023-01-11T01:34:45.223Z,9.50
2023-01-11T01:38:27.591Z,9.50
2023-01-11T01:42:18.668Z,9.50
2023-01-11T01:46:00.502Z,9.40
2023-01-11T01:49:44.341Z,9.40
2023-01-11T01:53:29.350Z,9.40
2023-01-11T01:57:25.899Z,9.40
2023-01-11T02:01:26.172Z,9.30
2023-01-11T02:05:10.051Z,9.30
2023-01-11T02:12:40.582Z,9.30
2023-01-11T02:16:22.666Z,9.30
2023-01-11T02:20:26.419Z,9.30
2023-01-11T02:24:37.380Z,9.20
2023-01-11T02:28:59.601Z,9.10
2023-01-11T02:33:05.380Z,9.10
2023-01-11T02:36:50.013Z,9.00
2023-01-11T02:40:49.307Z,9.00
2023-01-11T02:49:10.057Z,8.90
2023-01-11T02:53:03.243Z,8.90
2023-01-11T02:56:48.643Z,8.80
2023-01-11T03:00:30.970Z,8.70
2023-01-11T03:04:32.777Z,8.60
2023-01-11T03:08:45.798Z,8.60
2023-01-11T03:12:57.823Z,8.60
2023-01-11T03:17:21.690Z,8.50
2023-01-11T03:21:17.110Z,8.40
2023-01-11T03:25:17.891Z,8.40
2023-01-11T03:29:37.123Z,8.40
2023-01-11T03:33:29.257Z,8.40
2023-01-11T03:37:35.271Z,8.40
2023-01-11T03:41:23.458Z,8.30
2023-01-11T03:45:05.974Z,8.30
2023-01-11T03:49:05.762Z,8.30
2023-01-11T03:52:47.711Z,8.30
2023-01-11T03:56:43.163Z,8.30
2023-01-11T04:00:26.212Z,8.30
2023-01-11T04:04:08.118Z,8.30
2023-01-11T04:07:50.003Z,8.30
2023-01-11T04:11:32.004Z,8.30
2023-01-11T04:15:15.064Z,8.30
2023-01-11T04:18:57.115Z,8.30
2023-01-11T04:22:39.208Z,8.30
2023-01-11T04:26:21.170Z,8.30
2023-01-11T04:30:03.868Z,8.30
2023-01-11T04:33:45.762Z,8.30
2023-01-11T04:37:27.611Z,8.30
2023-01-11T04:41:28.337Z,8.30
2023-01-11T04:45:11.117Z,8.20
2023-01-11T04:48:53.285Z,8.20
2023-01-11T04:52:35.212Z,8.20
2023-01-11T04:56:17.123Z,8.10
2023-01-11T04:59:58.952Z,8.10
2023-01-11T05:03:40.831Z,8.00
2023-01-11T05:07:22.693Z,7.90
2023-01-11T05:11:07.501Z,7.90
2023-01-11T05:14:49.568Z,7.90
2023-01-11T05:18:31.403Z,7.80
2023-01-11T05:22:13.294Z,7.80
2023-01-11T05:25:55.110Z,7.80
2023-01-11T05:29:36.961Z,7.80
2023-01-11T05:33:19.387Z,7.70
2023-01-11T05:37:01.266Z,7.70
2023-01-11T05:40:43.087Z,7.70
2023-01-11T05:44:43.432Z,7.70
2023-01-11T05:48:25.835Z,7.70
2023-01-11T05:52:07.756Z,7.60
2023-01-11T05:55:57.759Z,7.80
2023-01-11T05:59:39.737Z,7.80
2023-01-11T06:03:22.894Z,7.80
2023-01-11T06:07:04.837Z,7.80
2023-01-11T06:10:54.466Z,7.80
2023-01-11T06:14:38.141Z,7.70
2023-01-11T06:18:20.615Z,7.70
2023-01-11T06:22:02.625Z,7.60
2023-01-11T06:25:45.478Z,7.60
2023-01-11T06:29:27.354Z,7.50
2023-01-11T06:33:09.308Z,7.50
2023-01-11T06:36:51.201Z,7.50
2023-01-11T06:40:33.108Z,7.40
2023-01-11T06:44:15.107Z,7.40
2023-01-11T06:47:57.183Z,7.40
2023-01-11T06:51:39.042Z,7.30
2023-01-11T06:55:21.902Z,7.30
2023-01-11T06:59:03.886Z,7.30
2023-01-11T07:02:46.872Z,7.30
2023-01-11T07:06:32.007Z,7.30
2023-01-11T07:10:16.355Z,7.30
2023-01-11T07:13:58.238Z,7.30
2023-01-11T07:17:40.072Z,7.30
2023-01-11T07:21:22.065Z,7.30
2023-01-11T07:25:05.228Z,7.20
2023-01-11T07:28:47.077Z,7.30
2023-01-11T07:32:29.243Z,7.30
2023-01-11T07:36:11.151Z,7.30
2023-01-11T07:39:52.985Z,7.20
2023-01-11T07:43:34.829Z,7.20
2023-01-11T07:47:16.726Z,7.10
2023-01-11T07:50:58.564Z,7.10
2023-01-11T07:54:40.434Z,7.10
2023-01-11T07:58:22.409Z,7.10
2023-01-11T08:02:04.341Z,7.10
2023-01-11T08:05:51.430Z,7.10
2023-01-11T08:09:33.296Z,7.10
2023-01-11T08:13:33.611Z,7.10
2023-01-11T08:17:16.854Z,7.00
2023-01-11T08:20:58.700Z,7.00
2023-01-11T08:24:40.721Z,7.00
2023-01-11T08:28:22.549Z,7.10
2023-01-11T08:32:04.545Z,7.00
2023-01-11T08:35:46.426Z,7.00
2023-01-11T08:39:31.069Z,7.00
2023-01-11T08:43:12.999Z,7.00
2023-01-11T08:46:54.832Z,7.00
2023-01-11T08:50:36.677Z,7.00
2023-01-11T08:54:18.513Z,7.10
2023-01-11T08:58:00.333Z,7.10
2023-01-11T09:01:42.247Z,7.20
2023-01-11T09:05:24.838Z,7.20
2023-01-11T09:09:06.708Z,7.30
2023-01-11T09:12:48.539Z,7.30
2023-01-11T09:16:30.617Z,7.40
2023-01-11T09:20:12.547Z,7.40
2023-01-11T09:23:54.410Z,7.40
2023-01-11T09:27:36.218Z,7.40
2023-01-11T09:31:18.162Z,7.40
2023-01-11T09:35:01.113Z,7.40
2023-01-11T09:38:43.970Z,7.50
2023-01-11T09:42:39.590Z,7.50
2023-01-11T09:46:22.979Z,7.60
2023-01-11T09:50:13.285Z,7.60
2023-01-11T09:54:32.184Z,7.60
2023-01-11T09:58:29.230Z,7.70
2023-01-11T10:02:29.707Z,7.70
2023-01-11T10:06:33.402Z,7.70
2023-01-11T10:18:33.612Z,7.80
2023-01-11T10:19:36.038Z,7.90
2023-01-11T10:23:26.082Z,8.00
2023-01-11T10:27:21.690Z,8.10
2023-01-11T10:31:29.999Z,8.10
2023-01-11T10:35:47.888Z,8.20
2023-01-11T10:40:01.522Z,8.40
2023-01-11T10:43:53.309Z,8.50
2023-01-11T10:47:41.271Z,8.60
2023-01-11T10:51:44.748Z,8.70
2023-01-11T10:55:46.042Z,8.80
2023-01-11T10:59:30.943Z,8.90
2023-01-11T11:03:25.463Z,9.00
2023-01-11T11:07:17.213Z,9.10
2023-01-11T11:11:01.925Z,9.20
2023-01-11T11:15:20.329Z,9.30
2023-01-11T11:19:02.306Z,9.20
2023-01-11T11:22:50.039Z,9.30
2023-01-11T11:26:38.977Z,9.30
2023-01-11T11:30:47.447Z,9.20
2023-01-11T11:34:30.812Z,9.10
2023-01-11T11:38:42.848Z,8.90
2023-01-11T11:42:25.811Z,8.70
2023-01-11T11:46:20.126Z,8.40
2023-01-11T11:50:42.479Z,8.10
2023-01-11T11:54:36.281Z,7.80
2023-01-11T11:58:21.277Z,7.60
2023-01-11T12:02:05.944Z,7.40
2023-01-11T12:06:02.770Z,7.30
2023-01-11T12:10:05.561Z,7.30
2023-01-11T12:14:04.681Z,7.30
2023-01-11T12:17:47.009Z,7.30
2023-01-11T12:21:32.566Z,7.30
2023-01-11T12:25:14.365Z,7.30
2023-01-11T12:29:14.031Z,7.40
2023-01-11T12:33:06.056Z,7.40
2023-01-11T12:37:02.409Z,7.40
2023-01-11T12:40:44.268Z,7.40
2023-01-11T12:44:32.093Z,7.40
2023-01-11T12:48:28.332Z,7.30
2023-01-11T12:52:36.093Z,7.40
2023-01-11T12:56:41.358Z,7.40
2023-01-11T13:00:52.634Z,7.40
2023-01-11T13:04:58.662Z,7.40
2023-01-11T13:09:01.582Z,7.50
2023-01-11T13:12:51.405Z,7.60
2023-01-11T13:16:47.241Z,7.60
2023-01-11T13:20:48.711Z,7.60
2023-01-11T13:24:35.846Z,7.60
2023-01-11T13:28:38.466Z,7.60
2023-01-11T13:32:28.251Z,7.60
2023-01-11T13:36:23.606Z,7.60
2023-01-11T13:40:27.181Z,7.60
2023-01-11T13:44:27.831Z,7.70
2023-01-11T13:48:45.424Z,7.70
2023-01-11T13:53:09.776Z,7.70
2023-01-11T13:57:00.249Z,7.70
2023-01-11T14:00:52.575Z,7.80
2023-01-11T14:05:15.730Z,7.80
2023-01-11T14:09:14.847Z,7.80
2023-01-11T14:13:05.688Z,7.90
2023-01-11T14:16:59.534Z,7.90
2023-01-11T14:21:11.827Z,8.00
2023-01-11T14:25:34.817Z,8.10
2023-01-11T14:29:33.118Z,8.00
2023-01-11T14:33:26.755Z,8.00
2023-01-11T14:37:41.706Z,7.90
2023-01-11T14:41:23.552Z,7.80
2023-01-11T14:45:25.531Z,7.80
2023-01-11T14:49:30.728Z,7.60
2023-01-11T14:53:18.759Z,7.50
2023-01-11T14:57:00.712Z,7.50
2023-01-11T15:00:42.676Z,7.50
2023-01-11T15:04:24.558Z,7.40
2023-01-11T15:08:15.670Z,7.40
2023-01-11T15:12:12.359Z,7.40
2023-01-11T15:16:26.545Z,7.40
2023-01-11T15:20:17.290Z,7.40
2023-01-11T15:23:59.252Z,7.30
2023-01-11T15:27:41.152Z,7.40
2023-01-11T15:31:34.276Z,7.40
2023-01-11T15:35:28.162Z,7.50
2023-01-11T15:39:11.113Z,7.50
2023-01-11T15:43:28.486Z,7.50
2023-01-11T15:47:34.435Z,7.60
2023-01-11T15:51:24.867Z,7.60
2023-01-11T15:55:36.064Z,7.60
2023-01-11T15:59:45.938Z,7.70
2023-01-11T16:03:40.865Z,7.70
2023-01-11T16:07:30.963Z,7.70
2023-01-11T16:11:43.218Z,7.80
2023-01-11T16:15:43.788Z,7.80
2023-01-11T16:19:31.661Z,7.80
2023-01-11T16:23:20.453Z,7.80
2023-01-11T16:27:04.049Z,7.80
2023-01-11T16:30:47.208Z,7.80
2023-01-11T16:34:38.005Z,7.90
2023-01-11T16:38:23.746Z,7.90
2023-01-11T16:42:06.773Z,7.90
2023-01-11T16:45:54.144Z,7.90
2023-01-11T16:49:36.169Z,7.90
2023-01-11T16:53:18.145Z,7.90
2023-01-11T16:57:01.254Z,7.90
2023-01-11T17:00:43.403Z,8.00
2023-01-11T17:04:31.905Z,8.10
2023-01-11T17:08:34.945Z,8.10
2023-01-11T17:12:27.131Z,8.10
2023-01-11T17:16:13.131Z,8.10
2023-01-11T17:19:58.787Z,8.20
2023-01-11T17:23:41.840Z,8.20
2023-01-11T17:27:35.753Z,8.10
2023-01-11T17:31:31.014Z,8.10
2023-01-11T17:35:17.041Z,8.10
2023-01-11T17:38:59.262Z,8.10
2023-01-11T17:42:59.526Z,8.10
2023-01-11T17:46:41.689Z,8.20
2023-01-11T17:50:35.579Z,8.20
2023-01-11T17:54:23.979Z,8.30
2023-01-11T17:58:08.848Z,8.30
2023-01-11T18:01:52.674Z,8.30
2023-01-11T18:05:35.374Z,8.40
2023-01-11T18:17:57.027Z,8.60
2023-01-11T18:21:50.121Z,8.70
2023-01-11T18:25:34.847Z,8.80
2023-01-11T18:29:20.844Z,8.80
2023-01-11T18:33:09.105Z,8.80
2023-01-11T18:37:15.827Z,8.90
2023-01-11T18:45:24.940Z,9.00
2023-01-11T18:49:06.795Z,9.00
2023-01-11T18:52:48.759Z,9.10
2023-01-11T18:56:30.595Z,9.10
2023-01-11T19:00:15.069Z,9.10
2023-01-11T19:03:56.962Z,9.00
2023-01-11T19:07:38.877Z,9.00
2023-01-11T19:11:20.761Z,8.90
2023-01-11T19:15:02.611Z,8.90
2023-01-11T19:18:45.892Z,8.90
2023-01-11T19:22:27.759Z,8.90
2023-01-11T19:26:09.676Z,8.90
2023-01-11T19:29:52.848Z,8.90
2023-01-11T19:33:35.067Z,8.90
2023-01-11T19:41:04.535Z,8.90
2023-01-11T19:44:46.342Z,8.90
2023-01-11T19:48:28.370Z,8.90
2023-01-11T19:52:19.045Z,8.90
2023-01-11T19:56:06.494Z,9.00
2023-01-11T19:59:49.588Z,9.00
2023-01-11T20:03:31.480Z,9.10
2023-01-11T20:07:14.916Z,9.10
2023-01-11T20:10:56.788Z,9.10
2023-01-11T20:14:40.476Z,9.10
2023-01-11T20:18:22.632Z,9.10
2023-01-11T20:22:21.579Z,9.10
2023-01-11T20:26:07.189Z,9.10
2023-01-11T20:29:49.172Z,9.10
2023-01-11T20:33:31.541Z,9.20
2023-01-11T20:37:15.256Z,9.10
2023-01-11T20:40:57.621Z,9.10
2023-01-11T20:49:05.797Z,9.10
2023-01-11T20:52:49.402Z,9.10
2023-01-11T20:56:33.560Z,9.10
2023-01-11T21:00:15.938Z,9.10
2023-01-11T21:04:09.081Z,9.10
2023-01-11T21:07:53.145Z,9.10
2023-01-11T21:11:35.713Z,9.10
2023-01-11T21:15:17.552Z,9.20
2023-01-11T21:19:04.032Z,9.20
2023-01-11T21:22:47.349Z,9.20
2023-01-11T21:26:31.091Z,9.20
2023-01-11T21:30:13.087Z,9.20
2023-01-11T21:33:55.100Z,9.20
2023-01-11T21:37:36.925Z,9.30
2023-01-11T21:41:40.560Z,9.30
2023-01-11T21:45:22.678Z,9.30
2023-01-11T21:49:04.928Z,9.30
2023-01-11T21:52:46.738Z,9.30
2023-01-11T21:56:28.631Z,9.30
2023-01-11T22:00:12.642Z,9.20
2023-01-11T22:03:55.318Z,9.20
2023-01-11T22:07:39.557Z,9.20
2023-01-11T22:11:22.687Z,9.20
2023-01-11T22:15:04.865Z,9.20
2023-01-11T22:22:28.254Z,9.20
2023-01-11T22:26:12.822Z,9.20
2023-01-11T22:29:54.922Z,9.20
2023-01-11T22:33:37.262Z,9.20
2023-01-11T22:37:19.962Z,9.20
2023-01-11T22:41:01.841Z,9.20
2023-01-11T22:44:43.669Z,9.30
2023-01-11T22:48:26.075Z,9.30
2023-01-11T22:52:07.954Z,9.30
2023-01-11T22:55:49.789Z,9.30
2023-01-11T22:59:31.653Z,9.40
2023-01-11T23:03:14.782Z,9.40
2023-01-11T23:06:57.350Z,9.40
2023-01-11T23:10:39.194Z,9.40
2023-01-11T23:14:21.437Z,9.50
2023-01-11T23:18:03.819Z,9.60
2023-01-11T23:21:46.210Z,9.60
2023-01-11T23:25:28.165Z,9.60
2023-01-11T23:29:10.161Z,9.70
2023-01-11T23:32:52.017Z,9.70
2023-01-11T23:36:36.749Z,9.70
2023-01-11T23:40:18.594Z,9.80
2023-01-11T23:44:01.449Z,9.80
2023-01-11T23:47:43.281Z,9.80
2023-01-11T23:51:25.126Z,9.80
2023-01-11T23:55:07.412Z,9.80
2023-01-11T23:58:49.352Z,9.90
